createdAt,value
2022-09-01T00:01:27.017Z,2.40
2022-09-01T00:04:04.384Z,2.20
2022-09-01T00:06:34.255Z,2.00
2022-09-01T00:09:06.416Z,1.85
2022-09-01T00:11:35.865Z,1.92
2022-09-01T00:14:07.107Z,2.17
2022-09-01T00:16:51.841Z,2.10
2022-09-01T00:19:21.046Z,1.63
2022-09-01T00:21:49.535Z,1.90
2022-09-01T00:24:18.935Z,1.85
2022-09-01T00:26:47.878Z,1.90
2022-09-01T00:29:16.615Z,1.88
2022-09-01T00:31:45.140Z,2.03
2022-09-01T00:34:13.417Z,1.80
2022-09-01T00:36:41.757Z,1.88
2022-09-01T00:39:10.558Z,2.10
2022-09-01T00:41:41.897Z,2.08
2022-09-01T00:44:13.559Z,2.08
2022-09-01T00:46:49.750Z,1.80
2022-09-01T00:49:35.077Z,1.88
2022-09-01T00:52:19.832Z,2.22
2022-09-01T00:54:52.763Z,2.08
2022-09-01T00:57:21.857Z,1.70
2022-09-01T00:59:54.802Z,2.00
2022-09-01T01:02:24.210Z,1.88
2022-09-01T01:04:52.967Z,1.67
2022-09-01T01:07:23.089Z,2.30
2022-09-01T01:09:59.566Z,2.13
2022-09-01T01:12:30.985Z,1.90
2022-09-01T01:14:59.461Z,1.83
2022-09-01T01:17:28.071Z,1.83
2022-09-01T01:20:17.421Z,1.90
2022-09-01T01:23:03.626Z,1.73
2022-09-01T01:25:44.364Z,2.10
2022-09-01T01:28:28.335Z,2.00
2022-09-01T01:31:06.832Z,1.70
2022-09-01T01:33:44.736Z,2.03
2022-09-01T01:36:18.160Z,2.13
2022-09-01T01:38:49.799Z,2.35
2022-09-01T01:41:22.077Z,1.87
2022-09-01T01:43:51.222Z,2.00
2022-09-01T01:46:21.232Z,1.95
2022-09-01T01:48:52.540Z,1.90
2022-09-01T01:51:27.734Z,2.13
2022-09-01T01:53:57.114Z,1.80
2022-09-01T01:56:26.170Z,2.10
2022-09-01T01:58:57.888Z,1.98
2022-09-01T02:01:32.188Z,1.77
2022-09-01T02:04:04.568Z,1.85
2022-09-01T02:06:34.913Z,1.80
2022-09-01T02:09:04.650Z,1.77
2022-09-01T02:11:35.836Z,1.67
2022-09-01T02:14:07.221Z,1.83
2022-09-01T02:16:36.504Z,1.85
2022-09-01T02:19:09.238Z,1.70
2022-09-01T02:21:38.074Z,1.70
2022-09-01T02:24:08.631Z,1.80
2022-09-01T02:26:47.496Z,1.73
2022-09-01T02:29:21.267Z,1.70
2022-09-01T02:31:52.667Z,1.80
2022-09-01T02:34:24.301Z,1.73
2022-09-01T02:36:56.051Z,1.80
2022-09-01T02:39:33.640Z,1.60
2022-09-01T02:42:02.934Z,1.73
2022-09-01T02:44:32.272Z,1.90
2022-09-01T02:47:02.036Z,1.58
2022-09-01T02:49:31.471Z,1.60
2022-09-01T02:52:02.018Z,1.63
2022-09-01T02:54:32.668Z,1.60
2022-09-01T02:57:01.682Z,1.58
2022-09-01T02:59:31.124Z,1.70
2022-09-01T03:04:35.189Z,1.92
2022-09-01T03:07:05.621Z,1.80
2022-09-01T03:09:35.278Z,1.50
2022-09-01T03:12:07.400Z,1.70
2022-09-01T03:14:36.664Z,1.48
2022-09-01T03:17:04.971Z,1.70
2022-09-01T03:19:44.547Z,1.60
2022-09-01T03:22:13.790Z,1.48
2022-09-01T03:24:42.749Z,1.80
2022-09-01T03:27:11.913Z,1.45
2022-09-01T03:29:40.348Z,1.70
2022-09-01T03:32:09.626Z,1.90
2022-09-01T03:34:38.848Z,1.65
2022-09-01T03:37:08.127Z,1.75
2022-09-01T03:39:37.280Z,2.22
2022-09-01T03:42:08.585Z,2.38
2022-09-01T03:44:40.436Z,1.63
2022-09-01T03:49:40.639Z,1.95
2022-09-01T03:52:13.579Z,1.88
2022-09-01T03:54:41.991Z,3.08
2022-09-01T03:57:10.585Z,2.10
2022-09-01T03:59:44.872Z,2.03
2022-09-01T04:02:14.767Z,2.03
2022-09-01T04:04:43.396Z,1.90
2022-09-01T04:07:19.139Z,1.70
2022-09-01T04:09:48.564Z,1.92
2022-09-01T04:12:17.364Z,1.73
2022-09-01T04:14:50.834Z,1.80
2022-09-01T04:17:39.335Z,2.30
2022-09-01T04:20:09.488Z,1.85
2022-09-01T04:22:38.393Z,1.85
2022-09-01T04:25:07.236Z,1.92
2022-09-01T04:27:39.225Z,2.15
2022-09-01T04:30:11.071Z,2.17
2022-09-01T04:32:40.602Z,2.13
2022-09-01T04:35:11.683Z,2.10
2022-09-01T04:37:40.237Z,2.10
2022-09-01T04:40:10.214Z,2.00
2022-09-01T04:42:38.542Z,2.25
2022-09-01T04:45:11.389Z,2.35
2022-09-01T04:47:45.627Z,1.90
2022-09-01T04:50:18.725Z,2.50
2022-09-01T04:53:06.926Z,2.10
2022-09-01T04:55:50.159Z,2.17
2022-09-01T04:58:22.261Z,2.40
2022-09-01T05:00:56.115Z,2.00
2022-09-01T05:03:25.815Z,2.08
2022-09-01T05:06:05.486Z,2.30
2022-09-01T05:08:36.399Z,1.63
2022-09-01T05:11:17.906Z,2.13
2022-09-01T05:13:49.364Z,2.33
2022-09-01T05:16:25.107Z,2.20
2022-09-01T05:18:58.074Z,2.70
2022-09-01T05:21:33.487Z,2.20
2022-09-01T05:24:04.039Z,2.03
2022-09-01T05:26:34.757Z,2.10
2022-09-01T05:29:10.831Z,2.20
2022-09-01T05:31:42.485Z,2.05
2022-09-01T05:34:14.018Z,2.20
2022-09-01T05:36:46.397Z,2.30
2022-09-01T05:39:15.149Z,1.98
2022-09-01T05:41:46.006Z,1.98
2022-09-01T05:44:15.788Z,2.00
2022-09-01T05:46:45.154Z,2.20
2022-09-01T05:49:16.374Z,2.15
2022-09-01T05:51:50.795Z,2.00
2022-09-01T05:54:25.625Z,2.42
2022-09-01T05:57:12.790Z,2.10
2022-09-01T05:59:54.196Z,2.55
2022-09-01T06:02:27.432Z,2.10
2022-09-01T06:05:00.192Z,2.00
2022-09-01T06:07:34.006Z,2.40
2022-09-01T06:10:03.749Z,2.03
2022-09-01T06:12:32.273Z,1.92
2022-09-01T06:15:01.380Z,2.30
2022-09-01T06:17:31.893Z,2.60
2022-09-01T06:20:10.920Z,2.17
2022-09-01T06:22:44.166Z,1.60
2022-09-01T06:25:12.897Z,1.95
2022-09-01T06:27:48.341Z,2.10
2022-09-01T06:30:24.133Z,1.73
2022-09-01T06:33:05.772Z,1.77
2022-09-01T06:35:35.949Z,1.85
2022-09-01T06:38:07.020Z,1.90
2022-09-01T06:40:59.497Z,1.77
2022-09-01T06:43:30.782Z,1.60
2022-09-01T06:46:02.394Z,2.10
2022-09-01T06:48:31.246Z,1.88
2022-09-01T06:51:21.772Z,1.65
2022-09-01T06:53:59.561Z,1.70
2022-09-01T06:56:34.105Z,1.95
2022-09-01T06:59:15.726Z,1.92
2022-09-01T07:01:49.894Z,1.80
2022-09-01T07:04:21.585Z,1.65
2022-09-01T07:07:01.871Z,1.60
2022-09-01T07:13:09.039Z,1.38
2022-09-01T07:18:31.734Z,2.08
2022-09-01T07:21:36.745Z,1.50
2022-09-01T07:24:11.489Z,1.90
2022-09-01T07:26:51.032Z,1.50
2022-09-01T07:29:21.935Z,1.60
2022-09-01T07:34:50.104Z,1.60
2022-09-01T07:43:28.454Z,1.60
2022-09-01T07:46:41.027Z,1.50
2022-09-01T07:49:36.631Z,1.63
2022-09-01T07:52:05.807Z,1.60
2022-09-01T07:54:37.368Z,1.42
2022-09-01T07:57:05.928Z,1.70
2022-09-01T07:59:36.557Z,1.30
2022-09-01T08:02:18.503Z,1.50
2022-09-01T08:04:49.204Z,1.45
2022-09-01T08:07:20.686Z,1.60
2022-09-01T08:09:49.318Z,1.50
2022-09-01T08:12:17.920Z,1.33
2022-09-01T08:17:51.397Z,1.38
2022-09-01T08:20:22.078Z,1.38
2022-09-01T08:23:10.986Z,1.60
2022-09-01T08:25:42.512Z,1.30
2022-09-01T08:28:11.964Z,1.40
2022-09-01T08:30:49.091Z,1.40
2022-09-01T08:33:23.521Z,1.73
2022-09-01T08:35:52.345Z,2.08
2022-09-01T08:38:20.792Z,1.20
2022-09-01T08:40:57.063Z,1.35
2022-09-01T08:43:52.604Z,1.40
2022-09-01T08:46:32.376Z,1.20
2022-09-01T08:52:33.036Z,1.45
2022-09-01T08:55:14.655Z,1.20
2022-09-01T08:57:54.845Z,1.33
2022-09-01T09:00:51.446Z,1.20
2022-09-01T09:03:47.891Z,1.20
2022-09-01T09:06:25.954Z,1.30
2022-09-01T09:08:58.724Z,1.10
2022-09-01T09:12:00.728Z,1.05
2022-09-01T09:15:03.665Z,1.13
2022-09-01T09:17:40.479Z,1.55
2022-09-01T09:20:09.547Z,1.30
2022-09-01T09:22:38.929Z,0.90
2022-09-01T09:25:17.469Z,1.10
2022-09-01T09:28:00.143Z,1.10
2022-09-01T09:30:31.574Z,1.00
2022-09-01T09:35:57.611Z,1.25
2022-09-01T09:38:29.591Z,1.10
2022-09-01T09:41:18.373Z,1.20
2022-09-01T09:44:22.828Z,1.20
2022-09-01T09:46:51.822Z,1.00
2022-09-01T09:49:36.796Z,1.08
2022-09-01T09:52:19.249Z,1.00
2022-09-01T09:55:23.953Z,1.10
2022-09-01T09:57:56.775Z,1.02
2022-09-01T10:00:34.632Z,1.10
2022-09-01T10:03:08.861Z,0.80
2022-09-01T10:05:53.792Z,1.00
2022-09-01T10:08:28.683Z,0.90
2022-09-01T10:10:58.311Z,0.80
2022-09-01T10:16:11.264Z,1.00
2022-09-01T10:18:45.127Z,1.00
2022-09-01T10:21:24.222Z,1.10
2022-09-01T10:23:53.699Z,1.08
2022-09-01T10:26:35.478Z,0.90
2022-09-01T10:29:11.327Z,1.00
2022-09-01T10:31:41.718Z,0.80
2022-09-01T10:34:27.524Z,0.80
2022-09-01T10:36:59.060Z,0.80
2022-09-01T10:39:31.101Z,0.80
2022-09-01T10:42:07.775Z,1.00
2022-09-01T10:44:39.060Z,0.95
2022-09-01T10:47:27.164Z,0.98
2022-09-01T10:49:55.390Z,0.75
2022-09-01T10:52:43.254Z,1.00
2022-09-01T10:55:25.009Z,0.80
2022-09-01T11:01:49.830Z,1.00
2022-09-01T11:04:47.457Z,1.10
2022-09-01T11:07:29.670Z,2.05
2022-09-01T11:10:34.209Z,1.90
2022-09-01T11:13:24.359Z,1.95
2022-09-01T11:15:53.769Z,1.70
2022-09-01T11:18:31.629Z,1.70
2022-09-01T11:21:23.944Z,1.52
2022-09-01T11:24:31.513Z,1.58
2022-09-01T11:27:00.133Z,1.30
2022-09-01T11:30:13.755Z,1.70
2022-09-01T11:32:47.012Z,1.35
2022-09-01T11:35:21.893Z,1.65
2022-09-01T11:37:57.723Z,1.40
2022-09-01T11:40:33.593Z,1.50
2022-09-01T11:43:12.584Z,1.50
2022-09-01T11:46:12.926Z,1.65
2022-09-01T11:48:47.375Z,1.30
2022-09-01T11:51:21.538Z,1.40
2022-09-01T11:53:52.133Z,1.50
2022-09-01T11:56:27.148Z,1.27
2022-09-01T11:58:55.724Z,1.33
2022-09-01T12:01:34.513Z,1.17
2022-09-01T12:04:25.561Z,1.20
2022-09-01T12:07:01.178Z,1.13
2022-09-01T12:09:39.212Z,1.30
2022-09-01T12:12:28.392Z,1.20
2022-09-01T12:15:05.677Z,1.13
2022-09-01T12:17:35.805Z,1.10
2022-09-01T12:20:39.992Z,1.00
2022-09-01T12:23:30.318Z,1.10
2022-09-01T12:26:02.622Z,1.15
2022-09-01T12:28:33.863Z,1.00
2022-09-01T12:31:08.338Z,1.45
2022-09-01T12:33:37.332Z,1.17
2022-09-01T12:36:28.060Z,1.00
2022-09-01T12:39:17.214Z,1.23
2022-09-01T12:42:01.045Z,1.30
2022-09-01T12:44:33.147Z,1.13
2022-09-01T12:47:07.542Z,1.15
2022-09-01T12:49:37.933Z,1.13
2022-09-01T12:52:20.580Z,1.10
2022-09-01T12:54:53.632Z,1.15
2022-09-01T12:57:30.531Z,1.00
2022-09-01T13:00:12.941Z,1.00
2022-09-01T13:02:45.131Z,1.25
2022-09-01T13:05:41.825Z,0.90
2022-09-01T13:08:13.946Z,1.08
2022-09-01T13:10:58.044Z,0.98
2022-09-01T13:13:27.668Z,1.05
2022-09-01T13:16:14.146Z,0.80
2022-09-01T13:21:35.284Z,1.00
2022-09-01T13:24:07.188Z,0.80
2022-09-01T13:26:37.539Z,0.95
2022-09-01T13:29:06.161Z,1.00
2022-09-01T13:31:35.773Z,1.00
2022-09-01T13:34:20.615Z,0.90
2022-09-01T13:36:52.886Z,0.90
2022-09-01T13:39:22.798Z,0.90
2022-09-01T13:41:51.651Z,1.10
2022-09-01T13:44:20.163Z,1.10
2022-09-01T13:50:05.302Z,1.05
2022-09-01T13:52:25.495Z,1.00
2022-09-01T13:54:54.060Z,1.00
2022-09-01T13:57:22.556Z,1.05
2022-09-01T13:59:51.259Z,0.90
2022-09-01T14:02:19.899Z,1.00
2022-09-01T14:05:13.393Z,1.00
2022-09-01T14:07:41.903Z,0.80
2022-09-01T14:10:10.787Z,0.82
2022-09-01T14:12:39.702Z,1.15
2022-09-01T14:15:13.871Z,1.08
2022-09-01T14:17:45.495Z,1.10
2022-09-01T14:20:41.266Z,0.90
2022-09-01T14:23:10.999Z,1.27
2022-09-01T14:25:48.447Z,0.80
2022-09-01T14:28:20.923Z,0.90
2022-09-01T14:43:15.620Z,0.75
2022-09-01T14:46:09.479Z,0.85
2022-09-01T14:48:40.061Z,0.68
2022-09-01T14:52:24.906Z,0.93
2022-09-01T14:54:53.204Z,0.63
2022-09-01T14:57:36.779Z,0.80
2022-09-01T15:00:12.494Z,0.82
2022-09-01T15:02:42.982Z,0.70
2022-09-01T15:07:55.962Z,0.85
2022-09-01T15:10:44.968Z,0.80
2022-09-01T15:13:13.817Z,0.90
2022-09-01T15:15:42.308Z,0.88
2022-09-01T15:18:10.911Z,0.93
2022-09-01T15:20:47.542Z,0.63
2022-09-01T15:23:26.354Z,0.85
2022-09-01T15:25:56.179Z,0.85
2022-09-01T15:28:25.840Z,0.88
2022-09-01T15:30:54.539Z,0.65
2022-09-01T15:33:23.106Z,0.70
2022-09-01T15:35:51.547Z,0.90
2022-09-01T15:38:25.059Z,0.80
2022-09-01T15:40:57.825Z,0.85
2022-09-01T15:43:28.540Z,0.93
2022-09-01T15:45:58.715Z,0.90
2022-09-01T15:48:28.743Z,0.77
2022-09-01T15:51:36.728Z,0.88
2022-09-01T15:54:28.355Z,0.85
2022-09-01T15:56:59.135Z,0.75
2022-09-01T15:59:29.246Z,0.68
2022-09-01T16:01:58.018Z,0.80
2022-09-01T16:04:27.961Z,1.25
2022-09-01T16:06:56.882Z,1.10
2022-09-01T16:09:26.637Z,0.60
2022-09-01T16:11:55.229Z,1.13
2022-09-01T16:14:23.961Z,0.82
2022-09-01T16:17:19.971Z,1.05
2022-09-01T16:20:10.915Z,0.95
2022-09-01T16:22:56.353Z,0.95
2022-09-01T16:25:30.547Z,0.93
2022-09-01T16:28:10.984Z,1.38
2022-09-01T16:30:39.914Z,0.85
2022-09-01T16:33:20.027Z,0.70
2022-09-01T16:36:20.870Z,1.15
2022-09-01T16:39:08.257Z,0.80
2022-09-01T16:41:50.124Z,0.80
2022-09-01T16:44:38.517Z,0.80
2022-09-01T16:47:39.256Z,0.73
2022-09-01T16:50:26.613Z,0.80
2022-09-01T16:53:21.751Z,0.82
2022-09-01T16:56:09.941Z,0.88
2022-09-01T16:58:52.355Z,0.90
2022-09-01T17:02:04.200Z,0.90
2022-09-01T17:04:47.650Z,0.82
2022-09-01T17:07:29.715Z,1.20
2022-09-01T17:10:05.113Z,0.90
2022-09-01T17:12:47.077Z,0.85
2022-09-01T17:15:20.038Z,0.82
2022-09-01T17:17:55.020Z,0.82
2022-09-01T17:20:30.119Z,0.90
2022-09-01T17:23:00.666Z,0.82
2022-09-01T17:25:41.315Z,0.88
2022-09-01T17:28:18.743Z,1.00
2022-09-01T17:31:02.910Z,1.20
2022-09-01T17:33:53.958Z,0.90
2022-09-01T17:37:18.089Z,1.00
2022-09-01T17:40:18.303Z,0.70
2022-09-01T17:42:56.854Z,1.05
2022-09-01T17:45:33.114Z,1.00
2022-09-01T17:48:15.329Z,0.90
2022-09-01T17:50:58.096Z,0.93
2022-09-01T17:53:50.834Z,1.30
2022-09-01T17:56:38.208Z,0.90
2022-09-01T17:59:29.250Z,0.70
2022-09-01T18:02:32.395Z,1.15
2022-09-01T18:05:08.608Z,0.90
2022-09-01T18:07:47.096Z,1.40
2022-09-01T18:10:30.758Z,1.20
2022-09-01T18:13:03.826Z,0.80
2022-09-01T18:15:43.552Z,0.98
2022-09-01T18:18:41.991Z,1.05
2022-09-01T18:21:24.656Z,0.85
2022-09-01T18:24:13.290Z,0.90
2022-09-01T18:26:46.462Z,1.10
2022-09-01T18:29:15.756Z,1.02
2022-09-01T18:32:31.990Z,0.77
2022-09-01T18:35:10.450Z,0.95
2022-09-01T18:37:50.820Z,1.15
2022-09-01T18:40:32.418Z,0.90
2022-09-01T18:43:37.680Z,0.90
2022-09-01T18:46:39.384Z,1.20
2022-09-01T18:49:44.010Z,1.17
2022-09-01T18:52:22.017Z,1.23
2022-09-01T18:55:04.567Z,0.90
2022-09-01T18:57:39.524Z,1.27
2022-09-01T19:00:34.637Z,1.15
2022-09-01T19:03:18.790Z,1.05
2022-09-01T19:06:19.900Z,1.20
2022-09-01T19:09:05.305Z,1.00
2022-09-01T19:11:55.968Z,1.00
2022-09-01T19:14:38.671Z,1.02
2022-09-01T19:17:29.933Z,1.25
2022-09-01T19:20:02.056Z,1.25
2022-09-01T19:22:35.738Z,1.00
2022-09-01T19:25:27.689Z,1.40
2022-09-01T19:30:47.189Z,1.30
2022-09-01T19:33:21.528Z,1.35
2022-09-01T19:35:52.966Z,2.42
2022-09-01T19:41:06.541Z,3.38
2022-09-01T19:43:37.239Z,3.90
2022-09-01T19:46:23.280Z,3.03
2022-09-01T19:49:07.026Z,3.95
2022-09-01T19:51:49.390Z,3.38
2022-09-01T19:54:42.979Z,3.15
2022-09-01T19:57:25.314Z,3.30
2022-09-01T20:00:03.781Z,3.80
2022-09-01T20:03:02.914Z,3.40
2022-09-01T20:05:42.175Z,3.22
2022-09-01T20:08:39.900Z,2.78
2022-09-01T20:11:22.447Z,3.05
2022-09-01T20:14:02.062Z,3.35
2022-09-01T20:16:38.666Z,2.80
2022-09-01T20:19:16.655Z,3.33
2022-09-01T20:21:47.485Z,3.30
2022-09-01T20:24:30.610Z,3.13
2022-09-01T20:27:03.280Z,4.00
2022-09-01T20:29:56.836Z,4.00
2022-09-01T20:33:10.197Z,3.33
2022-09-01T20:36:13.208Z,3.83
2022-09-01T20:39:24.358Z,3.08
2022-09-01T20:42:49.908Z,3.08
2022-09-01T20:45:28.989Z,3.33
2022-09-01T20:48:22.957Z,3.63
2022-09-01T20:51:07.964Z,3.45
2022-09-01T20:54:11.188Z,3.83
2022-09-01T20:56:47.146Z,3.28
2022-09-01T20:59:27.466Z,3.17
2022-09-01T21:02:12.509Z,3.00
2022-09-01T21:04:44.198Z,2.95
2022-09-01T21:10:05.340Z,3.00
2022-09-01T21:12:38.208Z,2.97
2022-09-01T21:15:24.774Z,3.53
2022-09-01T21:18:07.423Z,2.97
2022-09-01T21:20:57.895Z,3.00
2022-09-01T21:23:28.798Z,2.83
2022-09-01T21:25:58.778Z,3.63
2022-09-01T21:28:29.403Z,3.00
2022-09-01T21:31:00.076Z,2.45
2022-09-01T21:33:30.999Z,2.90
2022-09-01T21:36:00.308Z,3.13
2022-09-01T21:38:29.664Z,3.10
2022-09-01T21:41:00.435Z,2.90
2022-09-01T21:43:33.438Z,2.70
2022-09-01T21:46:02.847Z,2.67
2022-09-01T21:48:31.200Z,2.60
2022-09-01T21:50:59.470Z,2.45
2022-09-01T21:53:27.977Z,3.20
2022-09-01T21:55:56.238Z,2.83
2022-09-01T21:58:24.511Z,2.45
2022-09-01T22:00:53.109Z,2.42
2022-09-01T22:03:21.662Z,2.40
2022-09-01T22:05:51.288Z,2.58
2022-09-01T22:08:19.912Z,2.72
2022-09-01T22:10:52.168Z,2.22
2022-09-01T22:16:09.050Z,2.67
2022-09-01T22:18:37.487Z,2.80
2022-09-01T22:21:08.761Z,2.60
2022-09-01T22:23:38.231Z,2.50
2022-09-01T22:26:07.330Z,2.90
2022-09-01T22:28:36.448Z,3.50
2022-09-01T22:31:04.820Z,2.85
2022-09-01T22:33:33.424Z,3.20
2022-09-01T22:36:01.665Z,3.20
2022-09-01T22:38:29.916Z,3.53
2022-09-01T22:40:59.894Z,3.20
2022-09-01T22:43:29.951Z,3.50
2022-09-01T22:45:59.651Z,3.17
2022-09-01T22:48:29.289Z,3.67
2022-09-01T22:50:57.574Z,3.25
2022-09-01T22:53:25.793Z,3.65
2022-09-01T22:55:54.998Z,3.30
2022-09-01T22:58:23.286Z,3.50
2022-09-01T23:00:54.817Z,3.35
2022-09-01T23:03:23.564Z,3.22
2022-09-01T23:06:10.159Z,3.20
2022-09-01T23:08:39.616Z,3.30
2022-09-01T23:11:08.455Z,3.25
2022-09-01T23:13:37.334Z,3.05
2022-09-01T23:16:08.097Z,3.00
2022-09-01T23:18:38.446Z,3.95
2022-09-01T23:21:08.138Z,3.25
2022-09-01T23:23:37.541Z,3.50
2022-09-01T23:26:08.139Z,3.20
2022-09-01T23:28:37.908Z,3.30
2022-09-01T23:31:12.906Z,3.10
2022-09-01T23:33:41.348Z,3.00
2022-09-01T23:36:16.165Z,2.78
2022-09-01T23:38:45.639Z,2.92
2022-09-01T23:41:23.313Z,3.10
2022-09-01T23:43:52.254Z,2.80
2022-09-01T23:46:27.464Z,3.10
2022-09-01T23:48:56.313Z,2.55
2022-09-01T23:51:25.880Z,2.83
2022-09-01T23:53:54.273Z,2.80
2022-09-01T23:56:26.001Z,3.13
2022-09-01T23:58:54.785Z,3.08
